Time;durP1;ratioP1;P1;durP2;ratioP2;P2;SDS_P1;SDS_P2;PMS_P1;PMS_P2;Temp;Humidity;BMP_temperature;BMP_pressure;BME280_temperature;BME280_humidity;BME280_pressure;Samples;Min_cycle;Max_cycle;Signal;HPM_P1;HPM_P2
2023/12/01 00:00:19;;;;;;;49.50;31.70;;;-0.10;99.90;;;;;;5077224;28;20457;-54
2023/12/01 00:02:46;;;;;;;57.00;31.97;;;0.00;99.90;;;;;;5077845;28;20540;-56
2023/12/01 00:05:14;;;;;;;49.77;32.87;;;0.00;99.90;;;;;;5077441;28;20489;-55
2023/12/01 00:07:41;;;;;;;51.47;30.73;;;0.00;99.90;;;;;;5076688;28;20518;-56
2023/12/01 00:10:11;;;;;;;52.70;33.73;;;0.00;99.90;;;;;;5076664;28;20493;-55
2023/12/01 00:12:38;;;;;;;48.53;33.60;;;-0.10;99.90;;;;;;5077259;28;20462;-56
2023/12/01 00:15:06;;;;;;;51.00;33.07;;;-0.10;99.90;;;;;;5077494;28;20457;-52
2023/12/01 00:17:35;;;;;;;47.00;29.80;;;-0.20;99.90;;;;;;5077143;28;20811;-55
2023/12/01 00:20:03;;;;;;;47.17;29.83;;;-0.20;99.90;;;;;;5076814;28;20520;-55
2023/12/01 00:22:30;;;;;;;48.60;30.60;;;-0.20;99.90;;;;;;5076939;28;20464;-53
2023/12/01 00:24:57;;;;;;;49.13;32.60;;;-0.10;99.90;;;;;;5077429;28;20825;-54
2023/12/01 00:27:24;;;;;;;53.53;32.20;;;-0.20;99.90;;;;;;5077471;28;20825;-54
2023/12/01 00:29:51;;;;;;;54.33;32.40;;;-0.20;99.90;;;;;;5076595;28;20492;-55
2023/12/01 00:32:18;;;;;;;57.90;34.33;;;-0.10;99.90;;;;;;5076583;28;20465;-58
2023/12/01 00:34:47;;;;;;;61.40;35.33;;;0.00;99.90;;;;;;5077024;28;20471;-55
2023/12/01 00:37:16;;;;;;;43.37;29.67;;;0.10;99.90;;;;;;5076848;28;20492;-55
2023/12/01 00:39:43;;;;;;;51.10;32.93;;;0.10;99.90;;;;;;5076712;28;20439;-55
2023/12/01 00:42:12;;;;;;;55.53;35.10;;;0.00;99.90;;;;;;5076516;28;20550;-57
2023/12/01 00:44:39;;;;;;;61.73;35.83;;;0.00;99.90;;;;;;5076884;28;20867;-55
2023/12/01 00:47:07;;;;;;;55.00;31.37;;;0.00;99.90;;;;;;5078674;28;20836;-58
2023/12/01 00:49:34;;;;;;;55.40;34.27;;;0.10;99.90;;;;;;5080134;28;20890;-57
2023/12/01 00:52:04;;;;;;;51.17;33.30;;;0.10;99.90;;;;;;5080087;28;20800;-55
2023/12/01 00:54:32;;;;;;;56.93;33.83;;;0.10;99.90;;;;;;5080158;28;20496;-57
2023/12/01 00:56:59;;;;;;;56.30;33.80;;;0.10;99.90;;;;;;5079667;28;20449;-56
2023/12/01 00:59:27;;;;;;;57.47;32.83;;;0.10;99.90;;;;;;5079808;28;20540;-55
2023/12/01 01:01:54;;;;;;;50.60;31.97;;;0.00;99.90;;;;;;5079822;28;20540;-57
2023/12/01 01:04:21;;;;;;;52.50;31.13;;;0.00;99.90;;;;;;5080270;28;20450;-55
2023/12/01 01:06:48;;;;;;;54.73;31.70;;;0.00;99.90;;;;;;5079756;28;20504;-56
2023/12/01 01:09:17;;;;;;;52.10;32.20;;;0.00;99.90;;;;;;5080448;28;20881;-57
2023/12/01 01:11:44;;;;;;;52.17;30.63;;;0.00;99.90;;;;;;5079586;28;20499;-56
2023/12/01 01:14:12;;;;;;;47.97;29.50;;;-0.10;99.90;;;;;;5079802;28;20869;-56
2023/12/01 01:16:39;;;;;;;55.00;32.53;;;-0.10;99.90;;;;;;5080159;28;20434;-57
2023/12/01 01:19:06;;;;;;;51.60;31.17;;;-0.10;99.90;;;;;;5079931;28;20460;-58
2023/12/01 01:21:33;;;;;;;48.37;30.27;;;-0.10;99.90;;;;;;5079378;28;20468;-56
2023/12/01 01:24:00;;;;;;;53.63;31.33;;;-0.10;99.90;;;;;;5079884;28;20556;-58
2023/12/01 01:26:29;;;;;;;51.43;31.20;;;-0.10;99.90;;;;;;5079709;28;20558;-56
2023/12/01 01:28:56;;;;;;;49.50;30.70;;;0.00;99.90;;;;;;5080063;28;20470;-57
2023/12/01 01:31:24;;;;;;;56.83;34.50;;;0.00;99.90;;;;;;5079401;28;20467;-58
2023/12/01 01:33:51;;;;;;;53.47;31.80;;;0.10;99.90;;;;;;5079294;28;20464;-56
2023/12/01 01:36:19;;;;;;;47.50;31.13;;;0.10;99.90;;;;;;5079265;28;20925;-55
2023/12/01 01:38:46;;;;;;;48.83;30.93;;;0.10;99.90;;;;;;5079634;28;20497;-56
2023/12/01 01:41:13;;;;;;;49.10;29.63;;;0.10;99.90;;;;;;5079175;28;20896;-55
2023/12/01 01:43:42;;;;;;;46.10;31.47;;;0.10;99.90;;;;;;5079014;28;20552;-57
2023/12/01 01:46:12;;;;;;;46.63;28.37;;;0.10;99.90;;;;;;5078841;28;20587;-56
2023/12/01 01:48:41;;;;;;;44.00;29.33;;;0.00;99.90;;;;;;5079352;28;20461;-58
2023/12/01 01:51:09;;;;;;;43.07;28.60;;;0.00;99.90;;;;;;5079002;28;20489;-55
2023/12/01 01:53:38;;;;;;;44.80;27.97;;;0.00;99.90;;;;;;5078974;28;20465;-57
2023/12/01 01:56:07;;;;;;;42.40;29.50;;;0.10;99.90;;;;;;5078500;28;20468;-56
2023/12/01 01:58:34;;;;;;;39.17;26.90;;;0.10;99.90;;;;;;5078139;28;20947;-58
2023/12/01 02:01:03;;;;;;;38.10;27.83;;;0.10;99.90;;;;;;5078565;28;20461;-58
2023/12/01 02:03:30;;;;;;;35.77;25.47;;;0.10;99.90;;;;;;5079036;28;20493;-59
2023/12/01 02:05:57;;;;;;;37.60;24.63;;;0.00;99.90;;;;;;5078586;28;20458;-58
2023/12/01 02:08:25;;;;;;;37.83;25.97;;;0.00;99.90;;;;;;5078299;28;20855;-56
2023/12/01 02:10:53;;;;;;;41.47;26.83;;;0.10;99.90;;;;;;5078875;28;20500;-56
2023/12/01 02:13:21;;;;;;;36.57;26.93;;;0.10;99.90;;;;;;5078870;28;20453;-57
2023/12/01 02:15:49;;;;;;;37.60;26.27;;;0.10;99.90;;;;;;5078350;28;20878;-58
2023/12/01 02:18:26;;;;;;;38.50;24.43;;;0.10;99.90;;;;;;5078372;28;20901;-58
2023/12/01 02:20:54;;;;;;;33.53;23.70;;;0.00;99.90;;;;;;5078534;28;20487;-56
2023/12/01 02:23:23;;;;;;;35.87;25.10;;;0.00;99.90;;;;;;5078525;28;20457;-58
2023/12/01 02:25:53;;;;;;;38.47;25.17;;;0.10;99.90;;;;;;5078706;28;20462;-58
2023/12/01 02:28:20;;;;;;;34.97;25.80;;;0.00;99.90;;;;;;5077976;28;20461;-58
2023/12/01 02:30:50;;;;;;;36.30;25.37;;;0.00;99.90;;;;;;5078343;28;20588;-58
2023/12/01 02:33:18;;;;;;;37.87;26.50;;;0.00;99.90;;;;;;5078449;28;20759;-58
2023/12/01 02:35:46;;;;;;;36.17;26.17;;;0.00;99.90;;;;;;5078491;28;20464;-58
2023/12/01 02:38:14;;;;;;;36.63;26.50;;;0.00;99.90;;;;;;5077860;28;20486;-57
2023/12/01 02:40:44;;;;;;;37.63;26.83;;;0.00;99.90;;;;;;5077821;28;20456;-58
2023/12/01 02:43:12;;;;;;;38.30;25.77;;;0.00;99.90;;;;;;5078317;28;20498;-56
2023/12/01 02:45:39;;;;;;;38.43;25.50;;;0.10;99.90;;;;;;5077566;28;20464;-56
2023/12/01 02:48:07;;;;;;;34.67;23.17;;;0.00;99.90;;;;;;5077856;28;20540;-57
2023/12/01 02:50:34;;;;;;;42.20;23.70;;;0.00;99.90;;;;;;5077743;28;20492;-57
2023/12/01 02:53:02;;;;;;;36.27;23.53;;;0.00;99.90;;;;;;5078070;28;20461;-55
2023/12/01 02:55:29;;;;;;;34.33;22.00;;;-0.10;99.90;;;;;;5077502;28;20548;-58
2023/12/01 02:57:58;;;;;;;38.20;24.20;;;0.00;99.90;;;;;;5077531;28;20556;-57
2023/12/01 03:00:26;;;;;;;42.67;25.37;;;0.00;99.90;;;;;;5077707;28;20465;-58
2023/12/01 03:02:53;;;;;;;37.30;23.10;;;0.00;99.90;;;;;;5078219;28;20461;-57
2023/12/01 03:05:21;;;;;;;37.03;23.50;;;-0.20;99.90;;;;;;5077247;28;20749;-56
2023/12/01 03:07:49;;;;;;;40.73;25.40;;;-0.10;99.90;;;;;;5077387;28;20488;-57
2023/12/01 03:10:16;;;;;;;40.03;24.17;;;-0.10;99.90;;;;;;5076617;28;20493;-58
2023/12/01 03:12:45;;;;;;;39.97;24.60;;;-0.20;99.90;;;;;;5077889;28;20500;-56
2023/12/01 03:15:14;;;;;;;37.47;24.20;;;-0.10;99.90;;;;;;5077893;28;20457;-57
2023/12/01 03:17:42;;;;;;;37.43;23.20;;;-0.20;99.90;;;;;;5077944;28;20885;-57
2023/12/01 03:20:10;;;;;;;39.20;24.13;;;-0.20;99.90;;;;;;5077248;28;20510;-56
2023/12/01 03:22:38;;;;;;;37.60;23.03;;;-0.10;99.90;;;;;;5077696;28;20739;-57
2023/12/01 03:25:09;;;;;;;40.37;24.00;;;-0.10;99.90;;;;;;5077565;28;20962;-58
2023/12/01 03:27:40;;;;;;;40.70;26.67;;;-0.10;99.90;;;;;;5077654;28;20512;-58
2023/12/01 03:30:15;;;;;;;36.30;23.90;;;-0.10;99.90;;;;;;5077266;28;20890;-56
2023/12/01 03:32:45;;;;;;;33.70;22.57;;;-0.10;99.90;;;;;;5077191;28;20498;-58
2023/12/01 03:35:13;;;;;;;40.00;24.30;;;-0.10;99.90;;;;;;5077618;28;20858;-56
2023/12/01 03:37:41;;;;;;;34.63;21.70;;;-0.20;99.90;;;;;;5076933;28;20556;-56
2023/12/01 03:40:12;;;;;;;38.47;23.60;;;-0.10;99.90;;;;;;5077284;28;20460;-55
2023/12/01 03:42:42;;;;;;;38.27;24.40;;;-0.10;99.90;;;;;;5077403;28;20457;-54
2023/12/01 03:45:12;;;;;;;39.67;24.90;;;-0.10;99.90;;;;;;5077244;28;20460;-58
2023/12/01 03:47:39;;;;;;;38.77;24.20;;;-0.10;99.90;;;;;;5076799;28;20488;-58
2023/12/01 03:50:11;;;;;;;40.27;26.13;;;-0.10;99.90;;;;;;5077062;28;20464;-57
2023/12/01 03:52:41;;;;;;;38.70;24.10;;;-0.10;99.90;;;;;;5077285;28;20546;-58
2023/12/01 03:55:08;;;;;;;38.10;25.03;;;-0.10;99.90;;;;;;5077428;28;20522;-55
2023/12/01 03:57:36;;;;;;;35.60;22.80;;;0.00;99.90;;;;;;5076661;28;20440;-56
2023/12/01 04:00:07;;;;;;;43.90;25.10;;;0.00;99.90;;;;;;5077357;28;20481;-58
2023/12/01 04:02:38;;;;;;;37.57;23.67;;;0.00;99.90;;;;;;5077181;28;20896;-57
2023/12/01 04:05:06;;;;;;;38.67;24.90;;;0.00;99.90;;;;;;5077004;28;20942;-58
2023/12/01 04:07:35;;;;;;;39.90;24.60;;;0.00;99.90;;;;;;5076453;28;20485;-57
2023/12/01 04:10:10;;;;;;;37.70;23.87;;;0.10;99.90;;;;;;5076758;28;20487;-55
2023/12/01 04:12:44;;;;;;;40.23;26.43;;;0.10;99.90;;;;;;5076998;28;20951;-57
2023/12/01 04:15:13;;;;;;;40.27;24.10;;;0.10;99.90;;;;;;5077019;28;20734;-57
2023/12/01 04:17:42;;;;;;;41.03;25.03;;;0.10;99.90;;;;;;5076681;28;20877;-59
2023/12/01 04:20:20;;;;;;;40.33;24.47;;;0.10;99.90;;;;;;5077313;28;20920;-56
2023/12/01 04:22:52;;;;;;;40.87;24.03;;;0.10;99.90;;;;;;5080544;28;20564;-57
2023/12/01 04:25:19;;;;;;;42.33;24.57;;;0.10;99.90;;;;;;5081083;28;22390;-57
2023/12/01 04:27:48;;;;;;;41.77;23.87;;;0.10;99.90;;;;;;5080089;28;20544;-58
2023/12/01 04:30:15;;;;;;;36.83;23.20;;;0.10;99.90;;;;;;5080577;28;20443;-58
2023/12/01 04:32:43;;;;;;;44.33;24.70;;;0.00;99.90;;;;;;5080318;28;20489;-58
2023/12/01 04:35:12;;;;;;;41.30;22.87;;;0.10;99.90;;;;;;5080632;28;20482;-57
2023/12/01 04:37:41;;;;;;;38.70;23.70;;;0.10;99.90;;;;;;5080571;28;20471;-56
2023/12/01 04:40:14;;;;;;;36.97;23.80;;;0.10;99.90;;;;;;5080430;28;20440;-57
2023/12/01 04:42:44;;;;;;;39.30;23.30;;;0.00;99.90;;;;;;5080372;28;20463;-57
2023/12/01 04:45:12;;;;;;;38.60;23.50;;;0.00;99.90;;;;;;5080804;28;20935;-56
2023/12/01 04:47:41;;;;;;;38.23;23.60;;;0.00;99.90;;;;;;5080461;28;20911;-55
2023/12/01 04:50:13;;;;;;;37.40;23.17;;;0.00;99.90;;;;;;5080405;28;20511;-55
2023/12/01 04:52:44;;;;;;;38.33;23.30;;;0.00;99.90;;;;;;5080013;28;20468;-55
2023/12/01 04:55:14;;;;;;;39.50;23.03;;;0.00;99.90;;;;;;5080582;28;20740;-54
2023/12/01 04:57:42;;;;;;;38.17;24.23;;;0.00;99.90;;;;;;5080383;28;20529;-56
2023/12/01 05:00:19;;;;;;;35.70;22.70;;;-0.10;99.90;;;;;;5079981;28;20905;-51
2023/12/01 05:02:48;;;;;;;33.70;20.70;;;0.00;99.90;;;;;;5080332;28;20459;-56
2023/12/01 05:05:16;;;;;;;35.83;22.90;;;0.00;99.90;;;;;;5080346;28;20964;-55
2023/12/01 05:07:44;;;;;;;36.33;22.63;;;0.00;99.90;;;;;;5079944;28;20905;-57
2023/12/01 05:10:15;;;;;;;31.03;20.37;;;0.00;99.90;;;;;;5079912;28;20468;-57
2023/12/01 05:12:44;;;;;;;38.07;23.47;;;0.00;99.90;;;;;;5079542;28;20519;-57
2023/12/01 05:15:16;;;;;;;32.73;21.20;;;0.00;99.90;;;;;;5079900;28;20484;-56
2023/12/01 05:17:47;;;;;;;38.63;21.83;;;0.00;99.90;;;;;;5079657;28;20460;-56
2023/12/01 05:20:17;;;;;;;34.97;19.90;;;0.00;99.90;;;;;;5079577;28;20744;-57
2023/12/01 05:22:46;;;;;;;29.60;19.30;;;0.00;99.90;;;;;;5079858;28;20453;-57
2023/12/01 05:25:16;;;;;;;32.47;21.30;;;-0.10;99.90;;;;;;5079906;28;20920;-58
2023/12/01 05:27:45;;;;;;;34.77;23.03;;;-0.10;99.90;;;;;;5079139;28;20555;-54
2023/12/01 05:30:14;;;;;;;28.50;18.33;;;0.00;99.90;;;;;;5079380;28;20798;-57
2023/12/01 05:32:42;;;;;;;30.40;18.87;;;0.00;99.90;;;;;;5078319;28;20497;-57
2023/12/01 05:35:12;;;;;;;27.27;18.20;;;0.00;99.90;;;;;;5079469;28;20458;-54
2023/12/01 05:37:47;;;;;;;28.93;18.40;;;-0.10;99.90;;;;;;5079428;28;20460;-55
2023/12/01 05:40:19;;;;;;;29.27;19.07;;;-0.10;99.90;;;;;;5079416;28;20889;-56
2023/12/01 05:42:47;;;;;;;30.30;19.20;;;0.00;99.90;;;;;;5079022;28;20545;-56
2023/12/01 05:45:15;;;;;;;26.73;17.80;;;-0.10;99.90;;;;;;5079255;28;20563;-55
2023/12/01 05:47:44;;;;;;;35.10;20.33;;;-0.10;99.90;;;;;;5079048;28;20550;-54
2023/12/01 05:50:15;;;;;;;28.80;17.90;;;-0.30;99.90;;;;;;5079266;28;20751;-57
2023/12/01 05:52:43;;;;;;;30.50;18.70;;;-0.20;99.90;;;;;;5079581;28;20772;-58
2023/12/01 05:55:15;;;;;;;33.23;19.47;;;-0.20;99.90;;;;;;5079148;28;20467;-56
2023/12/01 05:57:48;;;;;;;38.23;20.20;;;-0.30;99.90;;;;;;5078900;28;20902;-57
2023/12/01 06:00:17;;;;;;;35.03;21.17;;;-0.30;99.90;;;;;;5079118;28;20471;-55
2023/12/01 06:02:46;;;;;;;36.70;20.17;;;-0.30;99.90;;;;;;5078972;28;20537;-58
2023/12/01 06:05:13;;;;;;;31.47;18.30;;;-0.30;99.90;;;;;;5078829;28;20455;-56
2023/12/01 06:07:45;;;;;;;34.27;19.97;;;-0.40;99.90;;;;;;5078391;28;20482;-57
2023/12/01 06:10:13;;;;;;;27.50;18.10;;;-0.40;99.90;;;;;;5078552;28;20480;-57
2023/12/01 06:12:41;;;;;;;29.77;17.23;;;-0.30;99.90;;;;;;5078717;28;20862;-57
2023/12/01 06:15:11;;;;;;;30.60;18.83;;;-0.30;99.90;;;;;;5078238;28;20457;-54
2023/12/01 06:17:38;;;;;;;31.10;18.07;;;-0.40;99.90;;;;;;5077647;28;20548;-53
2023/12/01 06:20:16;;;;;;;30.80;18.47;;;-0.40;99.90;;;;;;5077445;28;20522;-57
2023/12/01 06:22:45;;;;;;;29.63;18.73;;;-0.30;99.90;;;;;;5078514;28;20944;-54
2023/12/01 06:25:12;;;;;;;30.70;17.70;;;-0.30;99.90;;;;;;5078055;28;20805;-55
2023/12/01 06:27:40;;;;;;;31.27;19.83;;;-0.20;99.90;;;;;;5078189;28;20464;-53
2023/12/01 06:30:11;;;;;;;30.90;20.20;;;-0.30;99.90;;;;;;5077759;28;20465;-55
2023/12/01 06:32:40;;;;;;;27.80;18.27;;;-0.20;99.90;;;;;;5078222;28;20524;-57
2023/12/01 06:35:10;;;;;;;26.03;17.03;;;-0.30;99.90;;;;;;5079036;28;20877;-55
2023/12/01 06:37:37;;;;;;;26.57;16.70;;;-0.30;99.90;;;;;;5078187;28;20563;-60
2023/12/01 06:40:11;;;;;;;28.33;16.17;;;-0.30;99.90;;;;;;5077808;28;20903;-60
2023/12/01 06:42:40;;;;;;;29.07;18.03;;;-0.40;99.90;;;;;;5078653;28;20742;-60
2023/12/01 06:45:11;;;;;;;32.53;17.47;;;-0.30;99.90;;;;;;5077463;28;20464;-60
2023/12/01 06:47:40;;;;;;;25.73;17.67;;;-0.30;99.90;;;;;;5078111;28;20463;-59
2023/12/01 06:50:09;;;;;;;22.47;14.40;;;-0.40;99.90;;;;;;5077781;28;20465;-60
2023/12/01 06:52:37;;;;;;;23.60;15.90;;;-0.40;99.90;;;;;;5077370;28;20467;-59
2023/12/01 06:55:04;;;;;;;24.50;15.60;;;-0.50;99.90;;;;;;5077841;28;20467;-59
2023/12/01 06:57:32;;;;;;;27.83;17.00;;;-0.50;99.90;;;;;;5077060;28;20488;-58
2023/12/01 06:59:59;;;;;;;26.07;15.40;;;-0.50;99.90;;;;;;5077370;28;20461;-58
2023/12/01 07:02:27;;;;;;;28.97;17.57;;;-0.40;99.90;;;;;;5076307;28;20466;-60
2023/12/01 07:04:55;;;;;;;31.20;17.57;;;-0.50;99.90;;;;;;5076205;28;20465;-60
2023/12/01 07:07:23;;;;;;;27.37;17.77;;;-0.50;99.90;;;;;;5076246;28;20493;-59
2023/12/01 07:09:50;;;;;;;27.10;17.83;;;-0.50;99.90;;;;;;5075610;28;20510;-59
2023/12/01 07:12:18;;;;;;;27.80;18.33;;;-0.50;99.90;;;;;;5076040;28;20495;-58
2023/12/01 07:14:46;;;;;;;30.37;16.87;;;-0.50;99.90;;;;;;5075587;28;20961;-58
2023/12/01 07:17:13;;;;;;;28.93;18.67;;;-0.50;99.90;;;;;;5076428;28;20492;-60
2023/12/01 07:19:41;;;;;;;26.37;17.20;;;-0.50;99.90;;;;;;5076782;28;20844;-60
2023/12/01 07:22:10;;;;;;;28.47;17.43;;;-0.50;99.90;;;;;;5077096;28;20455;-59
2023/12/01 07:24:38;;;;;;;29.90;16.03;;;-0.60;99.90;;;;;;5077623;28;20465;-59
2023/12/01 07:27:05;;;;;;;32.87;18.67;;;-0.60;99.90;;;;;;5076080;28;20534;-60
2023/12/01 07:29:39;;;;;;;31.53;19.17;;;-0.60;99.90;;;;;;5075977;28;20463;-59
2023/12/01 07:32:07;;;;;;;28.40;16.80;;;-0.60;99.90;;;;;;5076868;28;20967;-60
2023/12/01 07:34:34;;;;;;;30.20;18.23;;;-0.70;99.90;;;;;;5076537;28;20792;-59
2023/12/01 07:37:10;;;;;;;25.40;17.60;;;-0.70;99.90;;;;;;5077158;28;20428;-60
2023/12/01 07:39:37;;;;;;;25.10;18.60;;;-0.80;99.90;;;;;;5076987;28;20470;-60
2023/12/01 07:42:09;;;;;;;30.03;18.40;;;-0.80;99.90;;;;;;5077485;28;20746;-60
2023/12/01 07:44:36;;;;;;;27.37;17.10;;;-0.80;99.90;;;;;;5077317;28;20559;-59
2023/12/01 07:47:07;;;;;;;27.37;17.17;;;-0.80;99.90;;;;;;5077302;28;20459;-60
2023/12/01 07:49:34;;;;;;;25.07;17.03;;;-0.70;99.90;;;;;;5076817;28;20463;-59
2023/12/01 07:52:06;;;;;;;31.23;17.57;;;-0.80;99.90;;;;;;5076036;28;20463;-60
2023/12/01 07:54:34;;;;;;;27.37;16.73;;;-0.80;99.90;;;;;;5077250;28;20436;-60
2023/12/01 07:57:01;;;;;;;25.03;15.93;;;-0.90;99.90;;;;;;5079775;28;20563;-60
2023/12/01 07:59:28;;;;;;;25.70;18.20;;;-0.90;99.90;;;;;;5080991;28;20442;-59
2023/12/01 08:01:56;;;;;;;27.37;18.30;;;-0.90;99.90;;;;;;5081150;28;20465;-59
2023/12/01 08:04:23;;;;;;;26.70;17.03;;;-0.80;99.90;;;;;;5080194;28;20491;-59
2023/12/01 08:06:50;;;;;;;28.27;17.30;;;-0.80;99.90;;;;;;5079338;28;20968;-59
2023/12/01 08:09:19;;;;;;;29.93;19.50;;;-0.70;99.90;;;;;;5080125;28;20492;-60
2023/12/01 08:11:46;;;;;;;26.97;17.90;;;-0.70;99.90;;;;;;5079726;28;20460;-59
2023/12/01 08:14:13;;;;;;;30.67;18.50;;;-0.70;99.90;;;;;;5079485;28;20512;-60
2023/12/01 08:16:42;;;;;;;36.23;21.47;;;-0.70;99.90;;;;;;5078679;28;20463;-59
2023/12/01 08:19:09;;;;;;;30.03;23.00;;;-0.70;99.90;;;;;;5079747;28;20462;-60
2023/12/01 08:21:37;;;;;;;32.50;23.37;;;-0.70;99.90;;;;;;5079602;28;20468;-59
2023/12/01 08:24:06;;;;;;;31.40;21.40;;;-0.60;99.90;;;;;;5080721;28;20559;-60
2023/12/01 08:26:34;;;;;;;32.00;19.83;;;-0.50;99.90;;;;;;5080626;28;20964;-59
2023/12/01 08:29:02;;;;;;;26.53;18.20;;;-0.50;99.90;;;;;;5080507;28;20464;-60
2023/12/01 08:31:30;;;;;;;24.20;17.77;;;-0.50;99.90;;;;;;5079558;28;20486;-59
2023/12/01 08:33:57;;;;;;;23.83;15.53;;;-0.50;99.90;;;;;;5080139;28;20491;-59
2023/12/01 08:36:25;;;;;;;21.23;15.20;;;-0.50;99.90;;;;;;5079014;28;20455;-60
2023/12/01 08:38:52;;;;;;;17.10;12.40;;;-0.50;99.90;;;;;;5080951;28;20465;-59
2023/12/01 08:41:20;;;;;;;18.03;12.90;;;-0.60;99.90;;;;;;5080480;28;20502;-59
2023/12/01 08:43:48;;;;;;;17.37;12.83;;;-0.50;99.90;;;;;;5080393;28;20793;-59
2023/12/01 08:46:16;;;;;;;17.80;13.27;;;-0.60;99.90;;;;;;5079890;28;20464;-59
2023/12/01 08:48:43;;;;;;;17.20;12.10;;;-0.60;99.90;;;;;;5080111;28;20484;-60
2023/12/01 08:51:10;;;;;;;15.60;12.10;;;-0.50;99.90;;;;;;5080370;28;20487;-60
2023/12/01 08:53:37;;;;;;;21.43;13.80;;;-0.50;99.90;;;;;;5079617;28;20489;-59
2023/12/01 08:56:05;;;;;;;17.53;12.30;;;-0.50;99.90;;;;;;5080044;28;20564;-59
2023/12/01 08:58:32;;;;;;;20.80;14.53;;;-0.50;99.90;;;;;;5080194;28;20543;-59
2023/12/01 09:01:02;;;;;;;24.10;13.20;;;-0.50;99.90;;;;;;5080164;28;20830;-59
2023/12/01 09:03:29;;;;;;;16.77;11.90;;;-0.50;99.90;;;;;;5079878;28;20453;-59
2023/12/01 09:05:57;;;;;;;19.20;10.87;;;-0.50;99.90;;;;;;5079803;28;20515;-59
2023/12/01 09:08:24;;;;;;;14.60;10.87;;;-0.60;99.90;;;;;;5078567;28;20774;-59
2023/12/01 09:10:51;;;;;;;15.47;11.90;;;-0.60;99.90;;;;;;5080419;28;20457;-59
2023/12/01 09:13:18;;;;;;;13.93;11.10;;;-0.50;99.90;;;;;;5079871;28;20993;-59
2023/12/01 09:15:46;;;;;;;16.10;11.73;;;-0.40;99.90;;;;;;5079386;28;20551;-60
2023/12/01 09:18:14;;;;;;;15.77;10.67;;;-0.40;99.90;;;;;;5079477;28;20492;-59
2023/12/01 09:20:42;;;;;;;16.03;10.60;;;-0.50;99.90;;;;;;5079978;28;20793;-59
2023/12/01 09:23:09;;;;;;;14.30;10.63;;;-0.40;99.90;;;;;;5079239;28;20453;-60
2023/12/01 09:25:36;;;;;;;13.77;10.17;;;-0.50;99.90;;;;;;5079567;28;20461;-59
2023/12/01 09:28:04;;;;;;;14.50;10.77;;;-0.40;99.90;;;;;;5079670;28;20463;-59
2023/12/01 09:30:31;;;;;;;17.20;12.87;;;-0.50;99.90;;;;;;5080024;28;20466;-59
2023/12/01 09:32:58;;;;;;;16.67;12.47;;;-0.40;99.90;;;;;;5079868;28;20759;-58
2023/12/01 09:35:29;;;;;;;16.03;12.50;;;-0.40;99.90;;;;;;5078574;28;20470;-58
2023/12/01 09:37:56;;;;;;;20.57;13.40;;;-0.40;99.90;;;;;;5077327;28;20465;-58
2023/12/01 09:40:25;;;;;;;19.83;12.97;;;-0.40;99.90;;;;;;5077193;28;20467;-59
2023/12/01 09:42:52;;;;;;;15.93;11.40;;;-0.40;99.90;;;;;;5077679;28;20457;-58
2023/12/01 09:45:21;;;;;;;20.80;15.13;;;-0.30;99.90;;;;;;5077347;28;20559;-59
2023/12/01 09:47:52;;;;;;;21.43;14.23;;;-0.30;99.90;;;;;;5077181;28;20517;-59
2023/12/01 09:50:22;;;;;;;19.67;14.77;;;-0.40;99.90;;;;;;5077965;28;20467;-59
2023/12/01 09:52:52;;;;;;;17.37;12.90;;;-0.30;99.90;;;;;;5078181;28;20536;-60
2023/12/01 09:55:19;;;;;;;23.70;15.47;;;-0.30;99.90;;;;;;5079470;28;20458;-59
2023/12/01 09:57:47;;;;;;;23.23;15.90;;;-0.20;99.90;;;;;;5079057;28;20440;-60
2023/12/01 10:00:15;;;;;;;24.20;17.80;;;-0.30;99.90;;;;;;5079168;28;20460;-60
2023/12/01 10:02:42;;;;;;;44.13;28.03;;;-0.30;99.90;;;;;;5078995;28;20493;-59
2023/12/01 10:05:11;;;;;;;39.70;28.37;;;-0.30;99.90;;;;;;5075899;28;20435;-60
2023/12/01 10:07:38;;;;;;;26.70;18.00;;;-0.30;99.90;;;;;;5077638;28;20562;-59
2023/12/01 10:10:19;;;;;;;25.07;16.67;;;-0.40;99.90;;;;;;5078333;28;20467;-59
2023/12/01 10:12:58;;;;;;;24.63;16.40;;;-0.40;99.90;;;;;;5078359;28;20880;-60
2023/12/01 10:15:26;;;;;;;25.17;17.27;;;-0.50;99.90;;;;;;5077536;28;20479;-60
2023/12/01 10:17:54;;;;;;;27.30;19.47;;;-0.50;99.90;;;;;;5078105;28;20943;-59
2023/12/01 10:20:22;;;;;;;24.23;17.50;;;-0.40;99.90;;;;;;5078941;28;20467;-59
2023/12/01 10:22:50;;;;;;;28.53;20.47;;;-0.40;99.90;;;;;;5079003;28;20459;-59
2023/12/01 10:25:18;;;;;;;27.63;18.50;;;-0.30;99.90;;;;;;5078518;28;20750;-59
2023/12/01 10:27:55;;;;;;;25.30;17.67;;;-0.30;99.90;;;;;;5078596;28;20455;-60
2023/12/01 10:30:23;;;;;;;25.27;16.97;;;-0.20;99.90;;;;;;5078551;28;20435;-59
2023/12/01 10:32:51;;;;;;;22.43;15.97;;;-0.30;99.90;;;;;;5078234;28;20456;-60
2023/12/01 10:35:18;;;;;;;24.43;16.00;;;-0.30;99.90;;;;;;5078576;28;20828;-59
2023/12/01 10:37:46;;;;;;;21.50;16.10;;;-0.30;99.90;;;;;;5078227;28;20468;-59
2023/12/01 10:40:14;;;;;;;25.30;17.30;;;-0.30;99.90;;;;;;5078171;28;20434;-59
2023/12/01 10:42:48;;;;;;;26.33;18.93;;;-0.30;99.90;;;;;;5078194;28;20476;-59
2023/12/01 10:45:17;;;;;;;26.50;17.77;;;-0.30;99.90;;;;;;5078279;28;20464;-59
2023/12/01 10:47:46;;;;;;;29.27;19.80;;;-0.30;99.90;;;;;;5078205;28;20468;-60
2023/12/01 10:50:15;;;;;;;29.30;18.50;;;-0.30;99.90;;;;;;5077806;28;20758;-59
2023/12/01 10:52:46;;;;;;;29.70;20.07;;;-0.30;99.90;;;;;;5077159;28;20456;-59
2023/12/01 10:55:14;;;;;;;32.23;20.70;;;-0.30;99.90;;;;;;5077010;28;20445;-59
2023/12/01 10:57:44;;;;;;;31.40;20.30;;;-0.40;99.90;;;;;;5076550;28;20446;-59
2023/12/01 11:00:29;;;;;;;29.07;19.27;;;-0.40;99.90;;;;;;5076605;28;20758;-60
2023/12/01 11:03:00;;;;;;;28.40;19.50;;;-0.40;99.90;;;;;;5078244;28;20508;-59
2023/12/01 11:05:30;;;;;;;30.97;20.90;;;-0.40;99.90;;;;;;5078270;28;20460;-59
2023/12/01 11:08:30;;;;;;;35.57;21.00;;;-0.40;99.90;;;;;;5077577;28;20581;-59
2023/12/01 11:11:08;;;;;;;26.80;18.80;;;-0.50;99.90;;;;;;5078221;28;20503;-59
2023/12/01 11:13:51;;;;;;;30.40;19.80;;;-0.50;99.90;;;;;;5077340;28;20923;-59
2023/12/01 11:16:19;;;;;;;31.27;20.00;;;-0.50;99.90;;;;;;5077720;28;20917;-59
2023/12/01 11:18:47;;;;;;;36.03;21.77;;;-0.40;99.90;;;;;;5077581;28;20441;-59
2023/12/01 11:21:17;;;;;;;34.17;20.63;;;-0.50;99.90;;;;;;5077944;28;20490;-60
2023/12/01 11:23:47;;;;;;;28.97;20.67;;;-0.50;99.90;;;;;;5077475;28;20465;-59
2023/12/01 11:26:14;;;;;;;32.33;20.80;;;-0.40;99.90;;;;;;5077266;28;20461;-59
2023/12/01 11:28:55;;;;;;;32.70;21.87;;;-0.40;99.90;;;;;;5077503;28;20435;-59
2023/12/01 11:31:34;;;;;;;33.70;21.00;;;-0.40;99.90;;;;;;5076673;28;20893;-59
2023/12/01 11:34:03;;;;;;;34.07;21.70;;;-0.40;99.90;;;;;;5077220;28;20926;-59
2023/12/01 11:36:31;;;;;;;36.73;22.20;;;-0.30;99.90;;;;;;5077496;28;20462;-59
2023/12/01 11:39:20;;;;;;;34.57;22.60;;;-0.20;99.90;;;;;;5077699;28;20481;-57
2023/12/01 11:41:56;;;;;;;36.10;21.23;;;-0.10;99.90;;;;;;5077134;28;20466;-56
2023/12/01 11:44:27;;;;;;;28.70;19.43;;;-0.10;99.90;;;;;;5077817;28;20460;-58
2023/12/01 11:46:58;;;;;;;29.13;19.63;;;0.10;99.90;;;;;;5075092;28;20504;-58
2023/12/01 11:49:27;;;;;;;26.93;18.83;;;0.10;99.90;;;;;;5072430;28;20468;-59
2023/12/01 11:51:54;;;;;;;28.17;18.10;;;0.10;99.90;;;;;;5074110;28;20695;-57
2023/12/01 11:54:21;;;;;;;28.23;18.40;;;0.30;99.90;;;;;;5076575;28;20488;-58
2023/12/01 11:56:50;;;;;;;25.13;16.60;;;0.30;99.90;;;;;;5066547;28;20561;-57
2023/12/01 11:59:18;;;;;;;28.83;18.80;;;0.20;99.90;;;;;;5072756;28;20890;-59
2023/12/01 12:01:47;;;;;;;25.93;17.43;;;0.20;99.90;;;;;;5071686;28;20844;-58
2023/12/01 12:04:16;;;;;;;27.97;18.67;;;-0.10;99.90;;;;;;5074436;28;20878;-58
2023/12/01 12:06:43;;;;;;;29.30;18.13;;;-0.20;99.90;;;;;;5074468;28;21036;-56
2023/12/01 12:09:17;;;;;;;28.47;19.03;;;-0.20;99.90;;;;;;5075656;28;20748;-58
2023/12/01 12:11:46;;;;;;;33.50;19.27;;;-0.30;99.90;;;;;;5075286;28;20464;-58
2023/12/01 12:14:14;;;;;;;32.27;19.97;;;-0.30;99.90;;;;;;5076084;28;20813;-58
2023/12/01 12:16:43;;;;;;;32.93;20.33;;;-0.30;99.90;;;;;;5076920;28;20581;-58
2023/12/01 12:19:12;;;;;;;34.90;21.53;;;-0.20;99.90;;;;;;5076773;28;20508;-57
2023/12/01 12:21:40;;;;;;;30.87;21.80;;;-0.10;99.90;;;;;;5074913;28;20459;-57
2023/12/01 12:24:07;;;;;;;31.87;20.37;;;-0.10;1.00;;;;;;5074679;28;20467;-56
2023/12/01 12:26:35;;;;;;;34.80;21.83;;;-0.10;1.00;;;;;;5075572;28;20456;-57
2023/12/01 12:29:04;;;;;;;33.73;21.83;;;-0.10;1.00;;;;;;5075916;28;20551;-60
2023/12/01 12:31:33;;;;;;;32.77;21.10;;;-0.10;99.90;;;;;;5075939;28;20878;-59
2023/12/01 12:34:02;;;;;;;37.73;23.60;;;-0.20;99.90;;;;;;5075250;28;20532;-59
2023/12/01 12:36:32;;;;;;;31.20;20.90;;;-0.30;1.00;;;;;;5075426;28;20503;-59
2023/12/01 12:39:01;;;;;;;34.80;22.33;;;-0.20;99.90;;;;;;5076856;28;20912;-59